createdAt,value
2017-12-14T00:01:39.187Z,99.77
2017-12-14T00:04:06.712Z,99.33
2017-12-14T00:06:34.235Z,100.00
2017-12-14T00:09:01.759Z,99.93
2017-12-14T00:11:29.277Z,100.00
2017-12-14T00:13:56.840Z,99.78
2017-12-14T00:16:24.353Z,99.98
2017-12-14T00:18:51.860Z,100.00
2017-12-14T00:21:19.397Z,99.93
2017-12-14T00:23:46.899Z,100.00
2017-12-14T00:26:14.457Z,99.97
2017-12-14T00:28:41.980Z,100.00
2017-12-14T00:31:09.495Z,100.00
2017-12-14T00:33:37.072Z,100.00
2017-12-14T00:36:04.583Z,100.00
2017-12-14T00:38:32.101Z,100.00
2017-12-14T00:40:59.641Z,100.00
2017-12-14T00:43:27.164Z,99.91
2017-12-14T00:45:54.662Z,100.00
2017-12-14T00:48:22.230Z,100.00
2017-12-14T00:50:49.748Z,99.72
2017-12-14T00:53:17.276Z,100.00
2017-12-14T00:55:44.849Z,99.80
2017-12-14T00:58:12.378Z,99.68
2017-12-14T01:00:39.914Z,100.00
2017-12-14T01:03:07.498Z,99.90
2017-12-14T01:05:35.013Z,100.00
2017-12-14T01:08:02.531Z,99.98
2017-12-14T01:10:30.102Z,99.92
2017-12-14T01:12:57.626Z,99.99
2017-12-14T01:15:25.150Z,100.00
2017-12-14T01:17:52.689Z,100.00
2017-12-14T01:20:20.187Z,99.82
2017-12-14T01:22:47.726Z,99.57
2017-12-14T01:25:15.256Z,99.17
2017-12-14T01:27:42.808Z,98.86
2017-12-14T01:30:10.336Z,98.99
2017-12-14T01:32:37.850Z,98.71
2017-12-14T01:35:05.392Z,98.08
2017-12-14T01:37:32.905Z,98.52
2017-12-14T01:40:00.479Z,98.77
2017-12-14T01:42:28.010Z,98.56
2017-12-14T01:44:55.520Z,97.77
2017-12-14T01:47:23.085Z,98.36
2017-12-14T01:49:50.597Z,97.82
2017-12-14T01:52:18.114Z,98.08
2017-12-14T01:54:45.781Z,98.13
2017-12-14T01:57:13.296Z,97.94
2017-12-14T01:59:40.814Z,97.53
2017-12-14T02:02:08.360Z,97.70
2017-12-14T02:04:35.873Z,97.49
2017-12-14T02:07:03.384Z,98.17
2017-12-14T02:09:30.953Z,97.89
2017-12-14T02:11:58.473Z,97.80
2017-12-14T02:14:25.988Z,97.19
2017-12-14T02:16:53.520Z,97.80
2017-12-14T02:19:21.089Z,98.25
2017-12-14T02:21:48.634Z,98.16
2017-12-14T02:24:16.143Z,97.84
2017-12-14T02:26:43.721Z,97.39
2017-12-14T02:29:11.227Z,97.02
2017-12-14T02:31:38.736Z,96.92
2017-12-14T02:34:06.302Z,97.48
2017-12-14T02:36:33.823Z,97.24
2017-12-14T02:39:01.332Z,96.31
2017-12-14T02:41:28.891Z,96.92
2017-12-14T02:43:56.570Z,96.71
2017-12-14T02:46:24.097Z,96.32
2017-12-14T02:48:51.671Z,96.71
2017-12-14T02:51:19.210Z,97.59
2017-12-14T02:53:46.728Z,97.69
2017-12-14T02:56:14.308Z,97.41
2017-12-14T02:58:41.828Z,96.91
2017-12-14T03:01:09.345Z,97.12
2017-12-14T03:03:37.011Z,97.37
2017-12-14T03:06:04.542Z,96.64
2017-12-14T03:08:32.145Z,97.35
2017-12-14T03:10:59.709Z,97.21
2017-12-14T03:13:27.263Z,96.75
2017-12-14T03:15:54.782Z,96.70
2017-12-14T03:18:22.295Z,96.71
2017-12-14T03:20:49.847Z,97.51
2017-12-14T03:23:17.360Z,97.99
2017-12-14T03:25:44.869Z,97.48
2017-12-14T03:28:12.432Z,97.27
2017-12-14T03:30:39.951Z,97.21
2017-12-14T03:33:07.474Z,97.91
2017-12-14T03:35:35.039Z,98.11
2017-12-14T03:38:02.601Z,97.63
2017-12-14T03:40:30.114Z,97.42
2017-12-14T03:42:57.634Z,98.22
2017-12-14T03:45:25.203Z,97.92
2017-12-14T03:47:52.709Z,97.78
2017-12-14T03:50:20.249Z,97.98
2017-12-14T03:52:47.814Z,97.50
2017-12-14T03:55:15.320Z,97.51
2017-12-14T03:57:42.956Z,98.00
2017-12-14T04:00:10.483Z,97.29
2017-12-14T04:02:37.994Z,97.34
2017-12-14T04:05:05.574Z,96.95
2017-12-14T04:07:33.084Z,96.98
2017-12-14T04:10:00.616Z,97.17
2017-12-14T04:12:28.180Z,97.35
2017-12-14T04:14:55.726Z,97.05
2017-12-14T04:17:23.281Z,97.56
2017-12-14T04:19:50.830Z,96.85
2017-12-14T04:22:18.363Z,96.68
2017-12-14T04:24:45.942Z,96.93
2017-12-14T04:27:13.480Z,96.74
2017-12-14T04:29:41.110Z,96.61
2017-12-14T04:32:08.658Z,96.19
2017-12-14T04:34:36.201Z,96.46
2017-12-14T04:37:03.757Z,96.34
2017-12-14T04:39:31.345Z,96.43
2017-12-14T04:41:58.891Z,95.80
2017-12-14T04:44:26.437Z,96.53
2017-12-14T04:46:54.032Z,97.09
2017-12-14T04:49:21.586Z,97.60
2017-12-14T04:51:49.234Z,96.59
2017-12-14T04:54:16.828Z,97.61
2017-12-14T04:56:44.365Z,98.48
2017-12-14T04:59:11.923Z,97.95
2017-12-14T05:01:39.505Z,98.49
2017-12-14T05:04:07.021Z,98.67
2017-12-14T05:06:34.548Z,99.08
2017-12-14T05:09:02.127Z,99.59
2017-12-14T05:11:29.676Z,99.11
2017-12-14T05:13:57.198Z,98.81
2017-12-14T05:16:24.791Z,99.85
2017-12-14T05:18:52.350Z,100.00
2017-12-14T05:21:19.894Z,100.00
2017-12-14T05:23:47.483Z,100.00
2017-12-14T05:26:15.030Z,100.00
2017-12-14T05:28:42.579Z,100.00
2017-12-14T05:31:10.118Z,100.00
2017-12-14T05:33:37.698Z,100.00
2017-12-14T05:36:05.232Z,100.00
2017-12-14T05:38:32.775Z,99.73
2017-12-14T05:41:00.353Z,100.00
2017-12-14T05:43:27.902Z,100.00
2017-12-14T05:45:55.440Z,99.87
2017-12-14T05:48:23.205Z,100.00
2017-12-14T05:50:50.765Z,100.00
2017-12-14T05:53:18.392Z,100.00
2017-12-14T05:55:45.979Z,100.00
2017-12-14T05:58:13.514Z,100.00
2017-12-14T06:00:41.041Z,100.00
2017-12-14T06:03:08.616Z,100.00
2017-12-14T06:05:36.159Z,100.00
2017-12-14T06:08:03.730Z,100.00
2017-12-14T06:10:31.248Z,100.00
2017-12-14T06:12:58.816Z,100.00
2017-12-14T06:15:26.348Z,100.00
2017-12-14T06:17:53.908Z,100.00
2017-12-14T06:20:21.445Z,100.00
2017-12-14T06:22:49.067Z,100.00
2017-12-14T06:25:16.605Z,100.00
2017-12-14T06:27:44.155Z,100.00
2017-12-14T06:30:11.736Z,100.00
2017-12-14T06:32:39.275Z,100.00
2017-12-14T06:35:06.840Z,100.00
2017-12-14T06:37:34.389Z,100.00
2017-12-14T06:40:01.974Z,100.00
2017-12-14T06:42:29.509Z,100.00
2017-12-14T06:44:57.033Z,100.00
2017-12-14T06:47:24.594Z,100.00
2017-12-14T06:49:52.156Z,100.00
2017-12-14T06:52:19.660Z,100.00
2017-12-14T06:54:47.216Z,100.00
2017-12-14T06:57:14.739Z,100.00
2017-12-14T06:59:42.306Z,100.00
2017-12-14T07:02:09.836Z,100.00
2017-12-14T07:04:37.357Z,100.00
2017-12-14T07:07:04.908Z,100.00
2017-12-14T07:09:32.502Z,100.00
2017-12-14T07:12:00.048Z,100.00
2017-12-14T07:14:27.569Z,100.00
2017-12-14T07:16:55.152Z,100.00
2017-12-14T07:19:22.673Z,100.00
2017-12-14T07:21:50.202Z,100.00
2017-12-14T07:24:17.764Z,100.00
2017-12-14T07:26:45.284Z,100.00
2017-12-14T07:29:12.825Z,100.00
2017-12-14T07:31:40.385Z,100.00
2017-12-14T07:34:07.975Z,100.00
2017-12-14T07:36:35.522Z,100.00
2017-12-14T07:39:03.113Z,100.00
2017-12-14T07:41:30.648Z,100.00
2017-12-14T07:44:10.153Z,100.00
2017-12-14T07:46:49.628Z,100.00
2017-12-14T07:49:24.591Z,100.00
2017-12-14T07:51:52.145Z,100.00
2017-12-14T07:54:19.700Z,100.00
2017-12-14T07:56:47.316Z,100.00
2017-12-14T07:59:14.854Z,100.00
2017-12-14T08:01:42.397Z,100.00
2017-12-14T08:04:09.989Z,100.00
2017-12-14T08:06:37.540Z,100.00
2017-12-14T08:09:05.117Z,100.00
2017-12-14T08:11:32.716Z,100.00
2017-12-14T08:14:00.245Z,100.00
2017-12-14T08:16:27.776Z,100.00
2017-12-14T08:18:55.358Z,100.00
2017-12-14T08:21:22.884Z,100.00
2017-12-14T08:23:50.432Z,100.00
2017-12-14T08:26:18.040Z,100.00
2017-12-14T08:28:45.589Z,100.00
2017-12-14T08:31:13.123Z,100.00
2017-12-14T08:33:40.679Z,100.00
2017-12-14T08:36:08.208Z,100.00
2017-12-14T08:38:35.804Z,100.00
2017-12-14T08:41:03.338Z,100.00
2017-12-14T08:43:30.902Z,100.00
2017-12-14T08:45:58.488Z,100.00
2017-12-14T08:48:26.031Z,100.00
2017-12-14T08:50:53.563Z,99.46
2017-12-14T08:53:21.152Z,99.43
2017-12-14T08:55:48.686Z,99.56
2017-12-14T08:58:16.200Z,99.28
2017-12-14T09:00:43.760Z,99.35
2017-12-14T09:03:12.116Z,99.10
2017-12-14T09:05:39.631Z,99.01
2017-12-14T09:08:07.152Z,98.80
2017-12-14T09:10:34.733Z,98.51
2017-12-14T09:13:02.286Z,98.45
2017-12-14T09:15:29.827Z,99.08
2017-12-14T09:17:57.385Z,99.05
2017-12-14T09:20:24.899Z,98.81
2017-12-14T09:22:52.461Z,99.87
2017-12-14T09:25:19.975Z,99.39
2017-12-14T09:27:47.526Z,99.24
2017-12-14T09:30:15.056Z,99.68
2017-12-14T09:32:42.588Z,100.00
2017-12-14T09:35:10.130Z,99.96
2017-12-14T09:37:37.661Z,99.37
2017-12-14T09:40:05.204Z,99.79
2017-12-14T09:42:32.715Z,98.57
2017-12-14T09:45:00.310Z,99.89
2017-12-14T09:47:27.847Z,98.77
2017-12-14T09:49:55.376Z,100.00
2017-12-14T09:52:22.944Z,100.00
2017-12-14T09:54:50.475Z,100.00
2017-12-14T09:57:18.026Z,100.00
2017-12-14T09:59:45.629Z,100.00
2017-12-14T10:02:13.143Z,100.00
2017-12-14T10:04:40.652Z,99.61
2017-12-14T10:07:08.248Z,100.00
2017-12-14T10:09:35.786Z,100.00
2017-12-14T10:12:03.309Z,99.30
2017-12-14T10:14:30.927Z,99.37
2017-12-14T10:16:58.455Z,99.59
2017-12-14T10:19:25.979Z,99.88
2017-12-14T10:21:53.570Z,98.67
2017-12-14T10:24:21.089Z,98.12
2017-12-14T10:26:48.632Z,98.42
2017-12-14T10:29:16.257Z,98.14
2017-12-14T10:31:43.785Z,98.24
2017-12-14T10:34:11.322Z,95.79
2017-12-14T10:36:38.903Z,96.98
2017-12-14T10:39:06.417Z,97.84
2017-12-14T10:41:33.945Z,96.33
2017-12-14T10:44:01.517Z,97.15
2017-12-14T10:46:29.046Z,96.51
2017-12-14T10:48:56.671Z,95.82
2017-12-14T10:51:24.222Z,94.46
2017-12-14T10:53:51.775Z,94.94
2017-12-14T10:56:19.346Z,95.63
2017-12-14T10:58:46.919Z,96.01
2017-12-14T11:01:19.855Z,97.35
2017-12-14T11:03:47.430Z,97.77
2017-12-14T11:06:14.964Z,98.80
2017-12-14T11:08:42.492Z,98.29
2017-12-14T11:11:10.064Z,97.93
2017-12-14T11:13:37.597Z,96.79
2017-12-14T11:16:05.136Z,96.08
2017-12-14T11:18:32.745Z,95.37
2017-12-14T11:21:00.279Z,95.64
2017-12-14T11:23:27.803Z,95.34
2017-12-14T11:25:55.399Z,96.22
2017-12-14T11:28:22.929Z,94.41
2017-12-14T11:30:50.456Z,94.56
2017-12-14T11:33:18.004Z,94.73
2017-12-14T11:35:45.560Z,94.31
2017-12-14T11:38:13.095Z,93.23
2017-12-14T11:40:40.711Z,92.91
2017-12-14T11:43:08.220Z,93.65
2017-12-14T11:45:35.744Z,96.66
2017-12-14T11:48:03.333Z,95.58
2017-12-14T11:50:30.847Z,96.63
2017-12-14T11:52:58.361Z,95.27
2017-12-14T11:55:25.920Z,96.07
2017-12-14T11:57:53.514Z,96.04
2017-12-14T12:00:21.704Z,95.95
2017-12-14T12:02:49.298Z,95.05
2017-12-14T12:05:16.841Z,95.83
2017-12-14T12:07:44.362Z,96.13
2017-12-14T12:10:11.940Z,94.24
2017-12-14T12:12:39.487Z,94.73
2017-12-14T12:15:07.016Z,93.75
2017-12-14T12:17:34.592Z,93.69
2017-12-14T12:20:02.127Z,93.19
2017-12-14T12:22:29.669Z,93.55
2017-12-14T12:24:57.244Z,93.59
2017-12-14T12:27:24.748Z,94.57
2017-12-14T12:29:52.257Z,94.56
2017-12-14T12:32:19.860Z,95.71
2017-12-14T12:34:47.392Z,94.99
2017-12-14T12:37:14.939Z,95.23
2017-12-14T12:39:42.464Z,95.59
2017-12-14T12:42:10.054Z,96.79
2017-12-14T12:44:37.583Z,96.56
2017-12-14T12:47:05.104Z,95.74
2017-12-14T12:49:32.668Z,95.11
2017-12-14T12:52:00.212Z,95.78
2017-12-14T12:54:27.719Z,95.49
2017-12-14T12:56:55.310Z,95.74
2017-12-14T12:59:22.841Z,95.91
2017-12-14T13:01:50.370Z,95.90
2017-12-14T13:04:17.939Z,95.61
2017-12-14T13:06:45.460Z,95.34
2017-12-14T13:09:12.992Z,95.78
2017-12-14T13:11:40.557Z,95.35
2017-12-14T13:14:08.080Z,95.79
2017-12-14T13:16:35.606Z,94.59
2017-12-14T13:19:03.176Z,94.32
2017-12-14T13:21:30.700Z,94.40
2017-12-14T13:23:58.245Z,94.79
2017-12-14T13:26:25.794Z,94.66
2017-12-14T13:28:53.345Z,95.55
2017-12-14T13:31:20.843Z,94.38
2017-12-14T13:33:48.429Z,94.92
2017-12-14T13:36:16.019Z,95.62
2017-12-14T13:38:43.536Z,96.48
2017-12-14T13:41:11.107Z,96.69
2017-12-14T13:43:38.629Z,96.12
2017-12-14T13:46:06.149Z,97.02
2017-12-14T13:48:33.729Z,97.61
2017-12-14T13:51:01.257Z,97.37
2017-12-14T13:53:28.790Z,97.38
2017-12-14T13:55:56.321Z,97.08
2017-12-14T13:58:23.845Z,97.84
2017-12-14T14:00:51.405Z,97.28
2017-12-14T14:03:18.927Z,96.70
2017-12-14T14:05:46.473Z,96.24
2017-12-14T14:08:13.991Z,96.35
2017-12-14T14:10:41.543Z,96.94
2017-12-14T14:13:09.056Z,96.90
2017-12-14T14:15:36.569Z,96.89
2017-12-14T14:18:04.146Z,96.21
2017-12-14T14:20:31.683Z,96.68
2017-12-14T14:22:59.188Z,96.52
2017-12-14T14:25:26.752Z,97.56
2017-12-14T14:27:54.264Z,97.91
2017-12-14T14:30:21.788Z,96.90
2017-12-14T14:32:49.347Z,97.90
2017-12-14T14:35:16.848Z,98.03
2017-12-14T14:37:44.353Z,97.65
2017-12-14T14:40:11.925Z,98.02
2017-12-14T14:42:39.464Z,97.74
2017-12-14T14:45:06.986Z,97.49
2017-12-14T14:47:34.556Z,96.48
2017-12-14T14:50:02.072Z,97.09
2017-12-14T14:52:29.575Z,97.08
2017-12-14T14:54:57.136Z,96.60
2017-12-14T14:57:24.747Z,97.43
2017-12-14T14:59:52.259Z,97.27
2017-12-14T15:02:19.871Z,97.25
2017-12-14T15:04:47.352Z,97.05
2017-12-14T15:07:14.847Z,97.51
2017-12-14T15:09:42.385Z,97.41
2017-12-14T15:12:09.912Z,96.81
2017-12-14T15:14:37.416Z,97.39
2017-12-14T15:17:04.964Z,97.78
2017-12-14T15:19:32.595Z,97.61
2017-12-14T15:22:00.104Z,98.04
2017-12-14T15:24:27.716Z,98.19
2017-12-14T15:26:55.228Z,98.57
2017-12-14T15:29:22.742Z,98.61
2017-12-14T15:31:50.301Z,99.07
2017-12-14T15:34:17.808Z,98.40
2017-12-14T15:36:45.366Z,98.73
2017-12-14T15:39:12.868Z,98.47
2017-12-14T15:41:40.387Z,98.30
2017-12-14T15:44:07.937Z,99.00
2017-12-14T15:46:35.451Z,98.95
2017-12-14T15:49:02.966Z,99.23
2017-12-14T15:51:30.537Z,99.20
2017-12-14T15:53:58.054Z,99.41
2017-12-14T15:56:25.561Z,98.68
2017-12-14T15:58:53.132Z,98.93
2017-12-14T16:01:20.645Z,98.44
2017-12-14T16:03:48.147Z,98.86
2017-12-14T16:06:15.685Z,97.85
2017-12-14T16:08:43.268Z,98.23
2017-12-14T16:11:10.771Z,99.54
2017-12-14T16:13:38.277Z,99.53
2017-12-14T16:16:05.840Z,99.04
2017-12-14T16:18:33.376Z,99.34
2017-12-14T16:21:00.884Z,99.65
2017-12-14T16:23:28.452Z,98.98
2017-12-14T16:25:55.972Z,100.00
2017-12-14T16:28:23.493Z,100.00
2017-12-14T16:30:51.069Z,99.79
2017-12-14T16:33:18.583Z,99.87
2017-12-14T16:35:46.113Z,99.99
2017-12-14T16:38:13.648Z,99.90
2017-12-14T16:40:41.180Z,99.83
2017-12-14T16:43:08.691Z,99.41
2017-12-14T16:45:36.264Z,99.46
2017-12-14T16:48:03.810Z,99.18
2017-12-14T16:50:31.315Z,99.47
2017-12-14T16:52:58.876Z,99.33
2017-12-14T16:55:26.399Z,99.65
2017-12-14T16:57:53.915Z,99.77
2017-12-14T17:00:21.468Z,98.98
2017-12-14T17:02:49.028Z,99.20
2017-12-14T17:05:16.613Z,99.20
2017-12-14T17:07:44.133Z,99.04
2017-12-14T17:10:11.640Z,99.22
2017-12-14T17:12:39.312Z,99.23
2017-12-14T17:15:06.825Z,99.45
2017-12-14T17:17:34.344Z,99.63
2017-12-14T17:20:01.930Z,99.37
2017-12-14T17:22:29.481Z,99.31
2017-12-14T17:24:56.985Z,99.70
2017-12-14T17:27:24.552Z,99.70
2017-12-14T17:29:52.069Z,99.12
2017-12-14T17:32:19.580Z,98.99
2017-12-14T17:34:47.204Z,99.32
2017-12-14T17:37:14.730Z,99.06
2017-12-14T17:39:42.314Z,99.98
2017-12-14T17:42:09.856Z,99.57
2017-12-14T17:44:37.371Z,99.45
2017-12-14T17:47:04.935Z,100.00
2017-12-14T17:49:32.457Z,99.61
2017-12-14T17:51:59.976Z,99.85
2017-12-14T17:54:27.597Z,99.77
2017-12-14T17:56:55.112Z,100.00
2017-12-14T17:59:22.633Z,100.00
2017-12-14T18:01:50.181Z,100.00
2017-12-14T18:04:17.709Z,100.00
2017-12-14T18:06:45.276Z,100.00
2017-12-14T18:09:12.813Z,100.00
2017-12-14T18:11:40.320Z,99.81
2017-12-14T18:14:07.925Z,99.69
2017-12-14T18:16:35.445Z,99.13
2017-12-14T18:19:02.965Z,99.69
2017-12-14T18:21:30.518Z,99.36
2017-12-14T18:23:58.037Z,99.36
2017-12-14T18:26:25.569Z,99.59
2017-12-14T18:28:53.098Z,99.04
2017-12-14T18:31:20.693Z,99.52
2017-12-14T18:33:48.237Z,98.83
2017-12-14T18:36:15.750Z,98.72
2017-12-14T18:38:43.316Z,99.29
2017-12-14T18:41:10.849Z,97.91
2017-12-14T18:43:38.374Z,98.06
2017-12-14T18:46:05.936Z,98.22
2017-12-14T18:48:33.667Z,98.12
2017-12-14T18:51:01.236Z,98.68
2017-12-14T18:53:28.787Z,99.28
2017-12-14T18:55:56.363Z,99.66
2017-12-14T18:58:23.898Z,99.42
2017-12-14T19:00:51.421Z,99.52
2017-12-14T19:03:18.992Z,99.31
2017-12-14T19:05:46.566Z,98.68
2017-12-14T19:08:14.226Z,99.56
2017-12-14T19:10:41.752Z,99.34
2017-12-14T19:13:09.289Z,99.59
2017-12-14T19:15:36.856Z,100.00
2017-12-14T19:18:04.407Z,99.12
2017-12-14T19:20:31.951Z,99.73
2017-12-14T19:22:59.488Z,98.08
2017-12-14T19:25:27.072Z,97.47
2017-12-14T19:27:54.622Z,98.30
2017-12-14T19:30:22.186Z,98.59
2017-12-14T19:32:49.711Z,98.50
2017-12-14T19:35:17.295Z,97.41
2017-12-14T19:37:44.822Z,97.49
2017-12-14T19:40:12.341Z,97.92
2017-12-14T19:42:39.895Z,97.88
2017-12-14T19:45:07.412Z,97.16
2017-12-14T19:47:34.993Z,96.09
2017-12-14T19:50:02.561Z,96.96
2017-12-14T19:52:30.154Z,97.94
2017-12-14T19:54:57.668Z,96.92
2017-12-14T19:57:25.184Z,97.15
2017-12-14T19:59:52.752Z,96.59
2017-12-14T20:02:20.273Z,96.75
2017-12-14T20:04:47.801Z,97.45
2017-12-14T20:07:15.382Z,98.27
2017-12-14T20:09:42.909Z,98.40
2017-12-14T20:12:10.432Z,98.17
2017-12-14T20:14:37.991Z,98.07
2017-12-14T20:17:05.523Z,98.56
2017-12-14T20:19:33.050Z,98.45
2017-12-14T20:22:00.656Z,98.79
2017-12-14T20:24:28.185Z,98.71
2017-12-14T20:26:55.721Z,98.17
2017-12-14T20:29:23.288Z,98.62
2017-12-14T20:31:50.808Z,99.38
2017-12-14T20:34:18.381Z,98.31
2017-12-14T20:36:45.911Z,99.31
2017-12-14T20:39:13.447Z,99.13
2017-12-14T20:41:40.989Z,99.43
2017-12-14T20:44:08.653Z,99.59
2017-12-14T20:46:36.200Z,99.73
2017-12-14T20:49:03.757Z,100.00
2017-12-14T20:51:31.344Z,99.83
2017-12-14T20:53:58.871Z,99.86
2017-12-14T20:56:26.418Z,100.00
2017-12-14T20:58:54.054Z,100.00
2017-12-14T21:01:21.586Z,99.55
2017-12-14T21:03:49.161Z,99.70
2017-12-14T21:06:16.689Z,99.55
2017-12-14T21:08:44.276Z,99.89
2017-12-14T21:11:11.789Z,100.00
2017-12-14T21:13:39.292Z,99.99
2017-12-14T21:16:07.309Z,99.94
2017-12-14T21:18:34.847Z,100.00
2017-12-14T21:21:02.364Z,100.00
2017-12-14T21:23:29.900Z,99.87
2017-12-14T21:25:57.425Z,100.00
2017-12-14T21:28:24.992Z,100.00
2017-12-14T21:30:52.503Z,100.00
2017-12-14T21:33:20.046Z,100.00
2017-12-14T21:35:47.636Z,100.00
2017-12-14T21:38:15.210Z,100.00
2017-12-14T21:40:42.724Z,100.00
2017-12-14T21:43:10.287Z,99.56
2017-12-14T21:45:37.787Z,99.62
2017-12-14T21:48:05.310Z,99.36
2017-12-14T21:50:33.744Z,98.84
2017-12-14T21:53:01.318Z,97.62
2017-12-14T21:55:28.846Z,97.40
2017-12-14T21:57:56.368Z,97.60
2017-12-14T22:00:23.970Z,97.87
2017-12-14T22:02:51.504Z,97.76
2017-12-14T22:05:19.021Z,97.08
2017-12-14T22:07:46.592Z,97.32
2017-12-14T22:10:14.108Z,97.39
2017-12-14T22:12:41.611Z,97.23
2017-12-14T22:15:09.160Z,97.39
2017-12-14T22:17:36.738Z,97.17
2017-12-14T22:20:04.255Z,97.23
2017-12-14T22:22:31.773Z,96.77
2017-12-14T22:24:59.337Z,96.20
2017-12-14T22:27:26.922Z,96.79
2017-12-14T22:29:54.492Z,96.64
2017-12-14T22:32:22.005Z,96.62
2017-12-14T22:34:49.515Z,96.34
2017-12-14T22:37:17.053Z,96.95
2017-12-14T22:39:44.629Z,96.48
2017-12-14T22:42:12.144Z,96.65
2017-12-14T22:44:39.651Z,95.81
2017-12-14T22:47:07.188Z,96.19
2017-12-14T22:49:34.728Z,95.82
2017-12-14T22:52:02.236Z,96.70
2017-12-14T22:54:29.803Z,96.39
2017-12-14T22:56:57.312Z,97.35
2017-12-14T22:59:24.842Z,97.07
2017-12-14T23:01:52.502Z,96.74
2017-12-14T23:04:19.986Z,96.49
2017-12-14T23:06:47.501Z,96.13
2017-12-14T23:09:15.066Z,97.04
2017-12-14T23:11:42.612Z,97.66
2017-12-14T23:14:10.167Z,97.22
2017-12-14T23:16:37.693Z,96.86
2017-12-14T23:19:05.252Z,96.50
2017-12-14T23:21:32.760Z,96.76
2017-12-14T23:24:00.264Z,96.59
2017-12-14T23:26:27.853Z,96.24
2017-12-14T23:28:55.375Z,96.47
2017-12-14T23:31:22.945Z,96.79
2017-12-14T23:33:50.458Z,96.56
2017-12-14T23:36:17.968Z,96.20
2017-12-14T23:38:45.527Z,96.20
2017-12-14T23:41:13.106Z,96.43
2017-12-14T23:43:40.619Z,96.62
2017-12-14T23:46:08.137Z,96.41
2017-12-14T23:48:35.667Z,96.75
2017-12-14T23:51:03.185Z,96.99
2017-12-14T23:53:30.735Z,97.16
2017-12-14T23:55:58.240Z,96.86
2017-12-14T23:58:25.760Z,95.73
